Terminal Aerodrome Forecast
Issued by NWS

Current Version | Previous Version | Graphics & Text | Print | Product List | Glossary Off
Versions: 1 2 3 4 5 6 7 8 9 10 11 12 13 14 15 16 17 18 19 20 21 22 23

000
FTUS41 KILN 261136
TAFLCK
TAF
KLCK 261136Z 2612/2712 00000KT P6SM FEW050 SCT250
      TEMPO 2612/2613 3SM BR
     FM261400 31005KT P6SM SCT040 BKN250
     FM270000 03003KT P6SM BKN250=

USA.gov is the U.S. government's official web portal to all federal, state and local government web resources and services.